createdAt,value
2018-05-09T00:00:59.335Z,0.00
2018-05-09T00:01:59.334Z,0.00
2018-05-09T00:02:59.341Z,0.00
2018-05-09T00:03:59.339Z,0.00
2018-05-09T00:04:59.342Z,0.00
2018-05-09T00:05:59.341Z,0.00
2018-05-09T00:06:59.334Z,0.00
2018-05-09T00:07:59.334Z,0.00
2018-05-09T00:08:59.335Z,0.00
2018-05-09T00:09:59.342Z,0.00
2018-05-09T00:10:59.370Z,0.00
2018-05-09T00:11:59.404Z,0.00
2018-05-09T00:12:59.336Z,0.00
2018-05-09T00:13:59.349Z,0.00
2018-05-09T00:14:59.335Z,0.00
2018-05-09T00:15:59.335Z,0.00
2018-05-09T00:16:59.334Z,0.00
2018-05-09T00:17:59.341Z,0.00
2018-05-09T00:18:59.339Z,0.00
2018-05-09T00:19:59.331Z,0.00
2018-05-09T00:20:59.334Z,0.00
2018-05-09T00:21:59.343Z,0.00
2018-05-09T00:22:59.340Z,0.00
2018-05-09T00:23:59.341Z,0.00
2018-05-09T00:24:59.356Z,0.00
2018-05-09T00:25:59.343Z,0.00
2018-05-09T00:26:59.335Z,0.00
2018-05-09T00:27:59.335Z,0.00
2018-05-09T00:28:59.336Z,0.00
2018-05-09T00:29:59.336Z,0.00
2018-05-09T00:30:59.342Z,0.00
2018-05-09T00:31:59.337Z,0.00
2018-05-09T00:32:59.343Z,0.00
2018-05-09T00:33:59.335Z,0.00
2018-05-09T00:34:59.341Z,0.00
2018-05-09T00:35:59.336Z,0.00
2018-05-09T00:36:59.338Z,0.00
2018-05-09T00:37:59.336Z,0.00
2018-05-09T00:38:59.337Z,0.00
2018-05-09T00:39:59.342Z,0.00
2018-05-09T00:40:59.337Z,0.00
2018-05-09T00:41:59.337Z,0.00
2018-05-09T00:42:59.355Z,0.00
2018-05-09T00:43:59.332Z,0.00
2018-05-09T00:44:59.337Z,0.00
2018-05-09T00:45:59.337Z,0.00
2018-05-09T00:46:59.338Z,0.00
2018-05-09T00:47:59.335Z,0.00
2018-05-09T00:48:59.337Z,0.00
2018-05-09T00:49:59.337Z,0.00
2018-05-09T00:50:59.337Z,0.00
2018-05-09T00:51:59.331Z,0.00
2018-05-09T00:52:59.336Z,0.00
2018-05-09T00:53:59.336Z,0.00
2018-05-09T00:54:59.337Z,0.00
2018-05-09T00:55:59.336Z,0.00
2018-05-09T00:56:59.340Z,0.00
2018-05-09T00:57:59.419Z,0.00
2018-05-09T00:58:59.332Z,0.00
2018-05-09T00:59:59.344Z,0.00
2018-05-09T01:00:59.338Z,0.00
2018-05-09T01:01:59.336Z,0.00
2018-05-09T01:02:59.337Z,0.00
2018-05-09T01:03:59.335Z,0.00
2018-05-09T01:04:59.336Z,0.00
2018-05-09T01:05:59.336Z,0.00
2018-05-09T01:06:59.346Z,0.00
2018-05-09T01:07:59.336Z,0.00
2018-05-09T01:08:59.360Z,0.00
2018-05-09T01:09:59.334Z,0.00
2018-05-09T01:10:59.336Z,0.00
2018-05-09T01:11:59.346Z,0.00
2018-05-09T01:12:59.337Z,0.00
2018-05-09T01:13:59.335Z,0.00
2018-05-09T01:14:59.335Z,0.00
2018-05-09T01:15:59.343Z,0.00
2018-05-09T01:16:59.338Z,0.00
2018-05-09T01:17:59.333Z,0.00
2018-05-09T01:18:59.339Z,0.00
2018-05-09T01:19:59.336Z,0.00
2018-05-09T01:20:59.340Z,0.00
2018-05-09T01:21:59.345Z,0.00
2018-05-09T01:22:59.334Z,0.00
2018-05-09T01:23:59.340Z,0.00
2018-05-09T01:24:59.363Z,0.00
2018-05-09T01:25:59.340Z,0.00
2018-05-09T01:26:59.336Z,0.00
2018-05-09T01:27:59.340Z,0.00
2018-05-09T01:28:59.338Z,0.00
2018-05-09T01:29:59.342Z,0.00
2018-05-09T01:30:59.339Z,0.00
2018-05-09T01:31:59.343Z,0.00
2018-05-09T01:32:59.337Z,0.00
2018-05-09T01:33:59.338Z,0.00
2018-05-09T01:34:59.330Z,0.00
2018-05-09T01:35:59.337Z,0.00
2018-05-09T01:36:59.332Z,0.00
2018-05-09T01:37:59.339Z,0.00
2018-05-09T01:38:59.337Z,0.00
2018-05-09T01:39:59.340Z,0.00
2018-05-09T01:40:59.331Z,0.00
2018-05-09T01:41:59.332Z,0.00
2018-05-09T01:42:59.329Z,0.00
2018-05-09T01:43:59.334Z,0.00
2018-05-09T01:44:59.331Z,0.00
2018-05-09T01:45:59.329Z,0.00
2018-05-09T01:46:59.334Z,0.00
2018-05-09T01:47:59.328Z,0.00
2018-05-09T01:48:59.329Z,0.00
2018-05-09T01:49:59.328Z,0.00
2018-05-09T01:50:59.326Z,0.00
2018-05-09T01:51:59.338Z,0.00
2018-05-09T01:52:59.338Z,0.00
2018-05-09T01:53:59.332Z,0.00
2018-05-09T01:54:59.369Z,0.00
2018-05-09T01:55:59.326Z,0.00
2018-05-09T01:56:59.321Z,0.00
2018-05-09T01:57:59.324Z,0.00
2018-05-09T01:58:59.331Z,0.00
2018-05-09T01:59:59.324Z,0.00
2018-05-09T02:00:59.324Z,0.00
2018-05-09T02:01:59.321Z,0.00
2018-05-09T02:02:59.349Z,0.00
2018-05-09T02:03:59.319Z,0.00
2018-05-09T02:04:59.319Z,0.00
2018-05-09T02:05:59.385Z,0.00
2018-05-09T02:06:59.322Z,0.00
2018-05-09T02:07:59.321Z,0.00
2018-05-09T02:08:59.321Z,0.00
2018-05-09T02:09:59.322Z,0.00
2018-05-09T02:10:59.316Z,0.00
2018-05-09T02:11:59.316Z,0.00
2018-05-09T02:12:59.313Z,0.00
2018-05-09T02:13:59.324Z,0.00
2018-05-09T02:14:59.319Z,0.00
2018-05-09T02:15:59.313Z,0.00
2018-05-09T02:16:59.313Z,0.00
2018-05-09T02:17:59.316Z,0.00
2018-05-09T02:18:59.312Z,0.00
2018-05-09T02:19:59.313Z,0.00
2018-05-09T02:20:59.316Z,0.00
2018-05-09T02:21:59.311Z,0.00
2018-05-09T02:22:59.312Z,0.00
2018-05-09T02:23:59.396Z,0.00
2018-05-09T02:24:59.309Z,0.00
2018-05-09T02:25:59.317Z,0.00
2018-05-09T02:26:59.319Z,0.00
2018-05-09T02:27:59.307Z,0.00
2018-05-09T02:28:59.307Z,0.00
2018-05-09T02:29:59.307Z,0.00
2018-05-09T02:30:59.320Z,0.00
2018-05-09T02:31:59.306Z,0.00
2018-05-09T02:32:59.307Z,0.00
2018-05-09T02:33:59.324Z,0.00
2018-05-09T02:34:59.304Z,0.00
2018-05-09T02:35:59.303Z,0.00
2018-05-09T02:36:59.307Z,0.00
2018-05-09T02:37:59.308Z,0.00
2018-05-09T02:38:59.302Z,0.00
2018-05-09T02:39:59.301Z,0.00
2018-05-09T02:40:59.301Z,0.00
2018-05-09T02:41:59.300Z,0.00
2018-05-09T02:42:59.299Z,0.00
2018-05-09T02:43:59.298Z,0.00
2018-05-09T02:44:59.299Z,0.00
2018-05-09T02:45:59.299Z,0.00
2018-05-09T02:46:59.322Z,0.00
2018-05-09T02:47:59.307Z,0.00
2018-05-09T02:48:59.298Z,0.00
2018-05-09T02:49:59.423Z,0.00
2018-05-09T02:50:59.293Z,0.00
2018-05-09T02:51:59.304Z,0.00
2018-05-09T02:52:59.294Z,0.00
2018-05-09T02:53:59.293Z,0.00
2018-05-09T02:54:59.289Z,0.00
2018-05-09T02:55:59.292Z,0.00
2018-05-09T02:56:59.289Z,0.00
2018-05-09T02:57:59.296Z,0.00
2018-05-09T02:58:59.293Z,0.00
2018-05-09T02:59:59.290Z,0.00
2018-05-09T03:00:59.290Z,0.00
2018-05-09T03:01:59.289Z,0.00
2018-05-09T03:02:59.290Z,0.00
2018-05-09T03:03:59.286Z,0.00
2018-05-09T03:04:59.281Z,0.00
2018-05-09T03:05:59.284Z,0.00
2018-05-09T03:06:59.282Z,0.00
2018-05-09T03:07:59.283Z,0.00
2018-05-09T03:08:59.281Z,0.00
2018-05-09T03:09:59.283Z,0.00
2018-05-09T03:10:59.280Z,0.00
2018-05-09T03:11:59.280Z,0.00
2018-05-09T03:12:59.277Z,0.00
2018-05-09T03:13:59.281Z,0.00
2018-05-09T03:14:59.294Z,0.00
2018-05-09T03:15:59.278Z,0.00
2018-05-09T03:16:59.276Z,0.00
2018-05-09T03:17:59.273Z,0.00
2018-05-09T03:18:59.272Z,0.00
2018-05-09T03:19:59.269Z,5.63
2018-05-09T03:20:59.271Z,5.63
2018-05-09T03:21:59.269Z,5.63
2018-05-09T03:22:59.269Z,5.63
2018-05-09T03:23:59.268Z,5.63
2018-05-09T03:24:59.271Z,5.63
2018-05-09T03:25:59.268Z,5.63
2018-05-09T03:26:59.266Z,5.63
2018-05-09T03:27:59.265Z,5.63
2018-05-09T03:28:59.267Z,11.25
2018-05-09T03:29:59.264Z,11.25
2018-05-09T03:30:59.263Z,11.25
2018-05-09T03:31:59.267Z,11.25
2018-05-09T03:32:59.264Z,11.25
2018-05-09T03:33:59.257Z,11.25
2018-05-09T03:34:59.257Z,11.25
2018-05-09T03:35:59.256Z,16.88
2018-05-09T03:36:59.258Z,16.88
2018-05-09T03:37:59.259Z,16.88
2018-05-09T03:38:59.260Z,16.88
2018-05-09T03:39:59.253Z,16.88
2018-05-09T03:40:59.253Z,22.50
2018-05-09T03:41:59.253Z,22.50
2018-05-09T03:42:59.262Z,22.50
2018-05-09T03:43:59.250Z,22.50
2018-05-09T03:44:59.249Z,22.50
2018-05-09T03:45:59.249Z,22.50
2018-05-09T03:46:59.246Z,28.13
2018-05-09T03:47:59.246Z,28.13
2018-05-09T03:48:59.242Z,28.13
2018-05-09T03:49:59.247Z,28.13
2018-05-09T03:50:59.244Z,28.13
2018-05-09T03:51:59.243Z,33.75
2018-05-09T03:52:59.244Z,33.75
2018-05-09T03:53:59.241Z,33.75
2018-05-09T03:54:59.241Z,33.75
2018-05-09T03:55:59.240Z,39.38
2018-05-09T03:56:59.241Z,39.38
2018-05-09T03:57:59.238Z,39.38
2018-05-09T03:58:59.240Z,45.00
2018-05-09T03:59:59.243Z,45.00
2018-05-09T04:00:59.239Z,50.63
2018-05-09T04:01:59.235Z,50.63
2018-05-09T04:02:59.230Z,56.25
2018-05-09T04:03:59.245Z,56.25
2018-05-09T04:04:59.232Z,56.25
2018-05-09T04:05:59.226Z,61.88
2018-05-09T04:06:59.230Z,61.88
2018-05-09T04:07:59.231Z,61.88
2018-05-09T04:08:59.227Z,61.88
2018-05-09T04:09:59.232Z,67.50
2018-05-09T04:10:59.296Z,67.50
2018-05-09T04:11:59.226Z,67.50
2018-05-09T04:12:59.226Z,73.13
2018-05-09T04:13:59.225Z,73.13
2018-05-09T04:14:59.224Z,73.13
2018-05-09T04:15:59.221Z,78.75
2018-05-09T04:16:59.220Z,78.75
2018-05-09T04:17:59.221Z,84.38
2018-05-09T04:18:59.223Z,84.38
2018-05-09T04:19:59.219Z,84.38
2018-05-09T04:20:59.292Z,90.00
2018-05-09T04:21:59.220Z,95.63
2018-05-09T04:22:59.221Z,95.63
2018-05-09T04:23:59.223Z,101.25
2018-05-09T04:24:59.218Z,106.88
2018-05-09T04:25:59.216Z,112.50
2018-05-09T04:26:59.216Z,118.13
2018-05-09T04:27:59.216Z,123.75
2018-05-09T04:28:59.215Z,129.38
2018-05-09T04:29:59.214Z,135.00
2018-05-09T04:30:59.222Z,140.63
2018-05-09T04:31:59.214Z,146.25
2018-05-09T04:32:59.215Z,151.88
2018-05-09T04:33:59.213Z,151.88
2018-05-09T04:34:59.215Z,151.88
2018-05-09T04:35:59.212Z,157.50
2018-05-09T04:36:59.213Z,157.50
2018-05-09T04:37:59.214Z,157.50
2018-05-09T04:38:59.214Z,163.13
2018-05-09T04:39:59.213Z,163.13
2018-05-09T04:40:59.211Z,168.75
2018-05-09T04:41:59.299Z,168.75
2018-05-09T04:42:59.212Z,168.75
2018-05-09T04:43:59.214Z,174.38
2018-05-09T04:44:59.208Z,174.38
2018-05-09T04:45:59.218Z,174.38
2018-05-09T04:46:59.223Z,180.00
2018-05-09T04:47:59.213Z,180.00
2018-05-09T04:48:59.214Z,185.63
2018-05-09T04:49:59.216Z,185.63
2018-05-09T04:50:59.219Z,185.63
2018-05-09T04:51:59.215Z,185.63
2018-05-09T04:52:59.214Z,191.25
2018-05-09T04:53:59.233Z,191.25
2018-05-09T04:54:59.225Z,191.25
2018-05-09T04:55:59.215Z,196.88
2018-05-09T04:56:59.216Z,196.88
2018-05-09T04:57:59.215Z,196.88
2018-05-09T04:58:59.217Z,196.88
2018-05-09T04:59:59.221Z,202.50
2018-05-09T05:00:59.223Z,202.50
2018-05-09T05:01:59.220Z,202.50
2018-05-09T05:02:59.222Z,202.50
2018-05-09T05:03:59.222Z,208.13
2018-05-09T05:04:59.225Z,208.13
2018-05-09T05:05:59.227Z,208.13
2018-05-09T05:06:59.297Z,208.13
2018-05-09T05:07:59.233Z,213.75
2018-05-09T05:08:59.227Z,213.75
2018-05-09T05:09:59.241Z,213.75
2018-05-09T05:10:59.238Z,219.38
2018-05-09T05:11:59.237Z,219.38
2018-05-09T05:12:59.239Z,219.38
2018-05-09T05:13:59.244Z,219.38
2018-05-09T05:14:59.240Z,225.00
2018-05-09T05:15:59.243Z,225.00
2018-05-09T05:16:59.248Z,225.00
2018-05-09T05:17:59.246Z,230.63
2018-05-09T05:18:59.249Z,230.63
2018-05-09T05:19:59.248Z,230.63
2018-05-09T05:20:59.251Z,230.63
2018-05-09T05:21:59.253Z,236.25
2018-05-09T05:22:59.258Z,236.25
2018-05-09T05:23:59.260Z,236.25
2018-05-09T05:24:59.262Z,236.25
2018-05-09T05:25:59.266Z,236.25
2018-05-09T05:26:59.358Z,241.88
2018-05-09T05:27:59.268Z,241.88
2018-05-09T05:28:59.274Z,241.88
2018-05-09T05:29:59.279Z,241.88
2018-05-09T05:30:59.280Z,247.50
2018-05-09T05:31:59.280Z,247.50
2018-05-09T05:32:59.286Z,247.50
2018-05-09T05:33:59.287Z,247.50
2018-05-09T05:34:59.332Z,253.13
2018-05-09T05:35:59.290Z,253.13
2018-05-09T05:36:59.295Z,253.13
2018-05-09T05:37:59.297Z,253.13
2018-05-09T05:38:59.299Z,258.75
2018-05-09T05:39:59.301Z,258.75
2018-05-09T05:40:59.304Z,264.38
2018-05-09T05:41:59.308Z,264.38
2018-05-09T05:42:59.309Z,264.38
2018-05-09T05:43:59.314Z,270.00
2018-05-09T05:44:59.381Z,270.00
2018-05-09T05:45:59.321Z,270.00
2018-05-09T05:46:59.320Z,275.63
2018-05-09T05:47:59.320Z,275.63
2018-05-09T05:48:59.328Z,275.63
2018-05-09T05:49:59.333Z,275.63
2018-05-09T05:50:59.334Z,275.63
2018-05-09T05:51:59.356Z,281.25
2018-05-09T05:52:59.337Z,281.25
2018-05-09T05:53:59.341Z,281.25
2018-05-09T05:54:59.344Z,281.25
2018-05-09T05:55:59.372Z,292.50
2018-05-09T05:56:59.350Z,298.13
2018-05-09T05:57:59.352Z,298.13
2018-05-09T05:58:59.356Z,292.50
2018-05-09T05:59:59.356Z,286.88
2018-05-09T06:00:59.362Z,286.88
2018-05-09T06:01:59.364Z,286.88
2018-05-09T06:02:59.370Z,292.50
2018-05-09T06:03:59.371Z,292.50
2018-05-09T06:04:59.383Z,292.50
2018-05-09T06:05:59.376Z,298.13
2018-05-09T06:06:59.382Z,298.13
2018-05-09T06:07:59.480Z,303.75
2018-05-09T06:08:59.386Z,303.75
2018-05-09T06:09:59.428Z,309.38
2018-05-09T06:10:59.392Z,315.00
2018-05-09T06:11:59.390Z,320.63
2018-05-09T06:12:59.400Z,326.25
2018-05-09T06:13:59.407Z,331.88
2018-05-09T06:14:59.405Z,337.50
2018-05-09T06:15:59.418Z,343.13
2018-05-09T06:16:59.412Z,354.38
2018-05-09T06:17:59.419Z,365.63
2018-05-09T06:18:59.441Z,376.88
2018-05-09T06:19:59.440Z,388.13
2018-05-09T06:20:59.424Z,405.00
2018-05-09T06:21:59.429Z,421.88
2018-05-09T06:22:59.435Z,478.13
2018-05-09T06:23:59.446Z,551.25
2018-05-09T06:24:59.454Z,607.50
2018-05-09T06:25:59.457Z,635.63
2018-05-09T06:26:59.451Z,652.50
2018-05-09T06:27:59.455Z,652.50
2018-05-09T06:28:59.460Z,652.50
2018-05-09T06:29:59.470Z,675.00
2018-05-09T06:30:59.543Z,708.75
2018-05-09T06:31:59.480Z,731.25
2018-05-09T06:32:59.479Z,714.38
2018-05-09T06:33:59.483Z,708.75
2018-05-09T06:34:59.488Z,753.75
2018-05-09T06:35:59.494Z,832.50
2018-05-09T06:36:59.497Z,877.50
2018-05-09T06:37:59.503Z,905.63
2018-05-09T06:38:59.508Z,905.63
2018-05-09T06:39:59.513Z,933.75
2018-05-09T06:40:59.516Z,984.38
2018-05-09T06:41:59.518Z,978.75
2018-05-09T06:42:59.523Z,984.38
2018-05-09T06:43:59.527Z,933.75
2018-05-09T06:44:59.533Z,888.75
2018-05-09T06:45:59.537Z,950.63
2018-05-09T06:46:59.545Z,1096.88
2018-05-09T06:47:59.554Z,1203.75
2018-05-09T06:48:59.551Z,1125.00
2018-05-09T06:49:59.683Z,1029.38
2018-05-09T06:50:59.560Z,1057.50
2018-05-09T06:51:59.640Z,1147.50
2018-05-09T06:52:59.571Z,1125.00
2018-05-09T06:53:59.575Z,1130.63
2018-05-09T06:54:59.579Z,1254.38
2018-05-09T06:55:59.586Z,1333.13
2018-05-09T06:56:59.593Z,1406.25
2018-05-09T06:57:59.596Z,1440.00
2018-05-09T06:58:59.659Z,1344.38
2018-05-09T06:59:59.615Z,1282.50
2018-05-09T07:00:59.618Z,1395.00
2018-05-09T07:01:59.622Z,1507.50
2018-05-09T07:02:59.627Z,1552.50
2018-05-09T07:03:59.629Z,1518.75
2018-05-09T07:04:59.637Z,1456.88
2018-05-09T07:05:59.640Z,1530.00
2018-05-09T07:06:59.643Z,1389.38
2018-05-09T07:07:59.651Z,1288.13
2018-05-09T07:08:59.655Z,1440.00
2018-05-09T07:09:59.667Z,1485.00
2018-05-09T07:10:59.667Z,1462.50
2018-05-09T07:11:59.676Z,1428.75
2018-05-09T07:12:59.677Z,1490.63
2018-05-09T07:13:59.686Z,1586.25
2018-05-09T07:14:59.694Z,1704.38
2018-05-09T07:15:59.700Z,1788.75
2018-05-09T07:16:59.702Z,1755.00
2018-05-09T07:17:59.712Z,1704.38
2018-05-09T07:18:59.719Z,1693.13
2018-05-09T07:19:59.726Z,1749.38
2018-05-09T07:20:59.732Z,1800.00
2018-05-09T07:21:59.738Z,1743.75
2018-05-09T07:22:59.817Z,1625.63
2018-05-09T07:23:59.753Z,1698.75
2018-05-09T07:24:59.754Z,1794.38
2018-05-09T07:25:59.770Z,1760.63
2018-05-09T07:26:59.775Z,1850.63
2018-05-09T07:27:59.782Z,1901.25
2018-05-09T07:28:59.787Z,1828.13
2018-05-09T07:29:59.796Z,1811.25
2018-05-09T07:30:59.800Z,1912.50
2018-05-09T07:31:59.808Z,1968.75
2018-05-09T07:32:59.814Z,1991.25
2018-05-09T07:33:59.821Z,1833.75
2018-05-09T07:34:59.831Z,1850.63
2018-05-09T07:35:59.835Z,1985.63
2018-05-09T07:36:59.845Z,1901.25
2018-05-09T07:37:59.852Z,1828.13
2018-05-09T07:38:59.859Z,1805.63
2018-05-09T07:39:59.867Z,1771.88
2018-05-09T07:40:59.874Z,1749.38
2018-05-09T07:41:59.884Z,1670.63
2018-05-09T07:42:59.888Z,1715.63
2018-05-09T07:43:59.895Z,1951.88
2018-05-09T07:44:59.903Z,2160.00
2018-05-09T07:45:59.912Z,2064.38
2018-05-09T07:46:59.917Z,1856.25
2018-05-09T07:48:00.012Z,1935.00
2018-05-09T07:48:59.941Z,2221.88
2018-05-09T07:49:59.939Z,2317.50
2018-05-09T07:50:59.955Z,2233.13
2018-05-09T07:51:59.956Z,2171.25
2018-05-09T07:52:59.963Z,1985.63
2018-05-09T07:53:59.974Z,1788.75
2018-05-09T07:54:59.980Z,1732.50
2018-05-09T07:55:59.990Z,1890.00
2018-05-09T07:56:59.996Z,2233.13
2018-05-09T07:58:00.012Z,2401.88
2018-05-09T07:59:00.012Z,2373.75
2018-05-09T08:00:00.021Z,2373.75
2018-05-09T08:01:00.031Z,2311.88
2018-05-09T08:02:00.035Z,2362.50
2018-05-09T08:03:00.045Z,2430.00
2018-05-09T08:04:00.053Z,2385.00
2018-05-09T08:05:00.063Z,2413.13
2018-05-09T08:06:00.171Z,2514.38
2018-05-09T08:07:00.077Z,2424.38
2018-05-09T08:08:00.090Z,2295.00
2018-05-09T08:09:00.095Z,2306.25
2018-05-09T08:10:00.105Z,2430.00
2018-05-09T08:11:00.157Z,2452.50
2018-05-09T08:12:00.125Z,2368.13
2018-05-09T08:13:00.131Z,2508.75
2018-05-09T08:14:00.147Z,2643.75
2018-05-09T08:15:00.152Z,2615.63
2018-05-09T08:16:00.163Z,2581.88
2018-05-09T08:17:00.171Z,2542.50
2018-05-09T08:18:00.178Z,2576.25
2018-05-09T08:19:00.191Z,2542.50
2018-05-09T08:20:00.197Z,2514.38
2018-05-09T08:21:00.204Z,2306.25
2018-05-09T08:22:00.214Z,2143.13
2018-05-09T08:23:00.262Z,2407.50
2018-05-09T08:24:00.232Z,2649.38
2018-05-09T08:25:00.242Z,2531.25
2018-05-09T08:26:00.266Z,2520.00
2018-05-09T08:27:00.266Z,2632.50
2018-05-09T08:28:00.265Z,2733.75
2018-05-09T08:29:00.290Z,2683.13
2018-05-09T08:30:00.288Z,2621.25
2018-05-09T08:31:00.300Z,2767.50
2018-05-09T08:32:00.308Z,2818.13
2018-05-09T08:33:00.315Z,2795.63
2018-05-09T08:34:00.325Z,2716.88
2018-05-09T08:35:00.338Z,2801.25
2018-05-09T08:36:00.349Z,2863.13
2018-05-09T08:37:00.355Z,2784.38
2018-05-09T08:38:00.365Z,2655.00
2018-05-09T08:39:00.383Z,2610.00
2018-05-09T08:40:00.389Z,2795.63
2018-05-09T08:41:00.399Z,3003.75
2018-05-09T08:42:00.407Z,2615.63
2018-05-09T08:43:00.417Z,2306.25
2018-05-09T08:44:00.528Z,2497.50
2018-05-09T08:45:00.439Z,2497.50
2018-05-09T08:46:00.446Z,1462.50
2018-05-09T08:47:00.457Z,478.13
2018-05-09T08:48:00.467Z,320.63
2018-05-09T08:49:00.485Z,292.50
2018-05-09T08:50:00.492Z,275.63
2018-05-09T08:51:00.498Z,264.38
2018-05-09T08:52:00.509Z,253.13
2018-05-09T08:53:00.516Z,241.88
2018-05-09T08:54:00.523Z,236.25
2018-05-09T08:55:00.543Z,230.63
2018-05-09T08:56:00.542Z,219.38
2018-05-09T08:57:00.554Z,213.75
2018-05-09T08:58:00.564Z,208.13
2018-05-09T08:59:00.640Z,202.50
2018-05-09T09:00:00.590Z,196.88
2018-05-09T09:01:00.595Z,196.88
2018-05-09T09:02:00.600Z,191.25
2018-05-09T09:03:00.608Z,191.25
2018-05-09T09:04:00.617Z,185.63
2018-05-09T09:05:00.626Z,185.63
2018-05-09T09:06:00.634Z,185.63
2018-05-09T09:07:00.657Z,185.63
2018-05-09T09:08:00.647Z,180.00
2018-05-09T09:09:00.653Z,180.00
2018-05-09T09:10:00.664Z,180.00
2018-05-09T09:11:00.678Z,180.00
2018-05-09T09:12:00.677Z,174.38
2018-05-09T09:13:00.685Z,174.38
2018-05-09T09:14:00.715Z,174.38
2018-05-09T09:15:00.695Z,174.38
2018-05-09T09:16:00.700Z,168.75
2018-05-09T09:17:00.706Z,168.75
2018-05-09T09:18:00.715Z,168.75
2018-05-09T09:19:00.729Z,168.75
2018-05-09T09:20:00.725Z,168.75
2018-05-09T09:21:00.732Z,168.75
2018-05-09T09:22:00.738Z,168.75
2018-05-09T09:23:00.748Z,163.13
2018-05-09T09:24:00.747Z,163.13
2018-05-09T09:25:00.755Z,163.13
2018-05-09T09:26:00.761Z,163.13
2018-05-09T09:27:00.769Z,163.13
2018-05-09T09:28:00.770Z,163.13
2018-05-09T09:29:00.770Z,163.13
2018-05-09T09:30:00.784Z,163.13
2018-05-09T09:31:00.784Z,163.13
2018-05-09T09:32:00.791Z,157.50
2018-05-09T09:33:00.793Z,157.50
2018-05-09T09:34:00.808Z,157.50
2018-05-09T09:35:00.804Z,157.50
2018-05-09T09:36:00.813Z,157.50
2018-05-09T09:37:00.820Z,157.50
2018-05-09T09:38:00.823Z,157.50
2018-05-09T09:39:00.827Z,151.88
2018-05-09T09:40:00.832Z,151.88
2018-05-09T09:41:00.838Z,151.88
2018-05-09T09:42:00.843Z,151.88
2018-05-09T09:43:00.843Z,151.88
2018-05-09T09:44:00.857Z,151.88
2018-05-09T09:45:00.862Z,151.88
2018-05-09T09:46:00.882Z,151.88
2018-05-09T09:47:00.876Z,151.88
2018-05-09T09:48:00.875Z,151.88
2018-05-09T09:49:00.882Z,151.88
2018-05-09T09:50:00.884Z,151.88
2018-05-09T09:51:00.919Z,151.88
2018-05-09T09:52:00.897Z,151.88
2018-05-09T09:53:00.898Z,151.88
2018-05-09T09:54:00.904Z,151.88
2018-05-09T09:55:00.910Z,151.88
2018-05-09T09:56:00.912Z,151.88
2018-05-09T09:57:00.918Z,151.88
2018-05-09T09:58:00.926Z,151.88
2018-05-09T09:59:00.929Z,151.88
2018-05-09T10:00:00.931Z,146.25
2018-05-09T10:01:00.970Z,146.25
2018-05-09T10:02:00.944Z,146.25
2018-05-09T10:03:00.950Z,146.25
2018-05-09T10:04:00.955Z,146.25
2018-05-09T10:05:00.963Z,146.25
2018-05-09T10:06:00.963Z,140.63
2018-05-09T10:07:00.962Z,140.63
2018-05-09T10:08:00.999Z,140.63
2018-05-09T10:09:00.975Z,140.63
2018-05-09T10:10:00.982Z,140.63
2018-05-09T10:11:00.986Z,140.63
2018-05-09T10:12:00.991Z,140.63
2018-05-09T10:13:00.997Z,140.63
2018-05-09T10:14:01.001Z,140.63
2018-05-09T10:15:01.009Z,140.63
2018-05-09T10:16:01.017Z,140.63
2018-05-09T10:17:01.018Z,140.63
2018-05-09T10:18:01.024Z,140.63
2018-05-09T10:19:01.035Z,140.63
2018-05-09T10:20:01.030Z,140.63
2018-05-09T10:21:01.039Z,140.63
2018-05-09T10:22:01.048Z,140.63
2018-05-09T10:23:01.048Z,140.63
2018-05-09T10:24:01.123Z,140.63
2018-05-09T10:25:01.059Z,140.63
2018-05-09T10:26:01.087Z,140.63
2018-05-09T10:27:01.073Z,140.63
2018-05-09T10:28:01.084Z,140.63
2018-05-09T10:29:01.086Z,140.63
2018-05-09T10:30:01.090Z,140.63
2018-05-09T10:31:01.092Z,140.63
2018-05-09T10:32:01.096Z,140.63
2018-05-09T10:33:01.140Z,140.63
2018-05-09T10:34:02.978Z,140.63
2018-05-09T10:35:01.214Z,140.63
2018-05-09T10:36:01.356Z,140.63
2018-05-09T10:37:01.126Z,140.63
2018-05-09T10:38:01.523Z,140.63
2018-05-09T10:39:01.146Z,140.63
2018-05-09T10:40:01.242Z,140.63
2018-05-09T10:41:01.289Z,140.63
2018-05-09T10:43:01.185Z,140.63
2018-05-09T10:44:01.161Z,140.63
2018-05-09T10:45:01.318Z,140.63
2018-05-09T10:46:01.169Z,140.63
2018-05-09T10:47:01.175Z,140.63
2018-05-09T10:48:01.278Z,140.63
2018-05-09T10:49:02.172Z,140.63
2018-05-09T10:50:01.205Z,140.63
2018-05-09T10:51:01.257Z,140.63
2018-05-09T10:52:01.667Z,140.63
2018-05-09T10:53:01.393Z,140.63
2018-05-09T10:54:01.578Z,140.63
2018-05-09T10:55:01.520Z,140.63
2018-05-09T10:56:01.489Z,140.63
2018-05-09T10:57:01.228Z,140.63
2018-05-09T10:58:01.235Z,140.63
2018-05-09T10:59:01.239Z,140.63
2018-05-09T11:00:01.249Z,140.63
2018-05-09T11:01:01.259Z,140.63
2018-05-09T11:02:01.259Z,140.63
2018-05-09T11:03:01.263Z,140.63
2018-05-09T11:04:01.266Z,140.63
2018-05-09T11:05:01.303Z,140.63
2018-05-09T11:06:01.278Z,140.63
2018-05-09T11:07:01.303Z,140.63
2018-05-09T11:08:01.971Z,140.63
2018-05-09T11:09:01.294Z,140.63
2018-05-09T11:10:01.304Z,140.63
2018-05-09T11:11:01.304Z,140.63
2018-05-09T11:12:01.323Z,140.63
2018-05-09T11:13:01.318Z,140.63
2018-05-09T11:14:01.323Z,140.63
2018-05-09T11:15:01.328Z,146.25
2018-05-09T11:16:01.334Z,146.25
2018-05-09T11:17:01.352Z,157.50
2018-05-09T11:18:01.345Z,168.75
2018-05-09T11:19:01.350Z,174.38
2018-05-09T11:20:01.353Z,174.38
2018-05-09T11:21:01.360Z,140.63
2018-05-09T11:22:01.372Z,129.38
2018-05-09T11:23:01.370Z,129.38
2018-05-09T11:24:01.375Z,129.38
2018-05-09T11:25:01.387Z,157.50
2018-05-09T11:26:01.385Z,163.13
2018-05-09T11:27:01.392Z,174.38
2018-05-09T11:28:01.398Z,180.00
2018-05-09T11:29:01.405Z,191.25
2018-05-09T11:30:01.409Z,202.50
2018-05-09T11:31:01.413Z,196.88
2018-05-09T11:32:01.416Z,180.00
2018-05-09T11:33:01.424Z,174.38
2018-05-09T11:34:01.433Z,163.13
2018-05-09T11:35:01.433Z,163.13
2018-05-09T11:36:01.443Z,157.50
2018-05-09T11:37:01.447Z,157.50
2018-05-09T11:38:01.454Z,157.50
2018-05-09T11:39:01.459Z,157.50
2018-05-09T11:40:01.466Z,157.50
2018-05-09T11:41:01.472Z,157.50
2018-05-09T11:42:01.481Z,163.13
2018-05-09T11:43:01.481Z,168.75
2018-05-09T11:44:01.488Z,174.38
2018-05-09T11:45:01.495Z,174.38
2018-05-09T11:46:01.506Z,163.13
2018-05-09T11:47:01.504Z,151.88
2018-05-09T11:48:01.510Z,140.63
2018-05-09T11:49:01.520Z,140.63
2018-05-09T11:50:01.520Z,157.50
2018-05-09T11:51:01.529Z,151.88
2018-05-09T11:52:01.533Z,151.88
2018-05-09T11:53:01.546Z,146.25
2018-05-09T11:54:01.545Z,151.88
2018-05-09T11:55:01.552Z,151.88
2018-05-09T11:56:01.559Z,151.88
2018-05-09T11:57:01.563Z,118.13
2018-05-09T11:58:01.570Z,118.13
2018-05-09T11:59:01.575Z,135.00
2018-05-09T12:00:01.582Z,168.75
2018-05-09T12:01:01.591Z,174.38
2018-05-09T12:02:01.596Z,174.38
2018-05-09T12:03:01.600Z,163.13
2018-05-09T12:04:01.602Z,157.50
2018-05-09T12:05:01.608Z,157.50
2018-05-09T12:06:01.619Z,168.75
2018-05-09T12:07:01.621Z,168.75
2018-05-09T12:08:01.624Z,168.75
2018-05-09T12:09:01.635Z,174.38
2018-05-09T12:10:01.637Z,180.00
2018-05-09T12:11:01.642Z,185.63
2018-05-09T12:12:01.646Z,185.63
2018-05-09T12:13:01.657Z,180.00
2018-05-09T12:14:01.658Z,168.75
2018-05-09T12:15:01.663Z,129.38
2018-05-09T12:16:01.677Z,135.00
2018-05-09T12:17:01.680Z,168.75
2018-05-09T12:18:01.681Z,163.13
2018-05-09T12:19:01.687Z,163.13
2018-05-09T12:20:01.700Z,157.50
2018-05-09T12:21:01.699Z,129.38
2018-05-09T12:22:01.710Z,146.25
2018-05-09T12:23:01.710Z,163.13
2018-05-09T12:24:01.721Z,163.13
2018-05-09T12:25:01.722Z,163.13
2018-05-09T12:26:01.729Z,135.00
2018-05-09T12:27:01.734Z,168.75
2018-05-09T12:28:01.739Z,163.13
2018-05-09T12:29:01.745Z,163.13
2018-05-09T12:30:01.754Z,185.63
2018-05-09T12:31:01.757Z,196.88
2018-05-09T12:32:01.772Z,191.25
2018-05-09T12:33:01.772Z,191.25
2018-05-09T12:34:01.779Z,191.25
2018-05-09T12:35:01.784Z,196.88
2018-05-09T12:36:01.788Z,213.75
2018-05-09T12:37:01.793Z,236.25
2018-05-09T12:38:01.797Z,247.50
2018-05-09T12:39:01.807Z,258.75
2018-05-09T12:40:01.814Z,253.13
2018-05-09T12:41:01.843Z,247.50